sensor_id;sensor_type;location;lat;lon;timestamp;P1;durP1;ratioP1;P2;durP2;ratioP2
215;SDS011;64590;48.81286795;9.14184224;2022-12-07T00:01:45;20.65;;;10.80;;
215;SDS011;64590;48.81286795;9.14184224;2022-12-07T00:04:13;19.17;;;11.55;;
215;SDS011;64590;48.81286795;9.14184224;2022-12-07T00:06:42;20.85;;;11.10;;
215;SDS011;64590;48.81286795;9.14184224;2022-12-07T00:09:11;21.92;;;11.85;;
215;SDS011;64590;48.81286795;9.14184224;2022-12-07T00:11:40;21.02;;;11.40;;
215;SDS011;64590;48.81286795;9.14184224;2022-12-07T00:14:07;19.75;;;11.77;;
215;SDS011;64590;48.81286795;9.14184224;2022-12-07T00:16:37;21.27;;;11.60;;
215;SDS011;64590;48.81286795;9.14184224;2022-12-07T00:19:04;21.45;;;11.38;;
215;SDS011;64590;48.81286795;9.14184224;2022-12-07T00:21:32;21.38;;;12.27;;
215;SDS011;64590;48.81286795;9.14184224;2022-12-07T00:24:00;19.85;;;11.63;;
215;SDS011;64590;48.81286795;9.14184224;2022-12-07T00:26:28;18.63;;;10.77;;
215;SDS011;64590;48.81286795;9.14184224;2022-12-07T00:29:01;19.25;;;10.95;;
215;SDS011;64590;48.81286795;9.14184224;2022-12-07T00:31:31;22.00;;;11.68;;
215;SDS011;64590;48.81286795;9.14184224;2022-12-07T00:34:00;23.35;;;11.80;;
215;SDS011;64590;48.81286795;9.14184224;2022-12-07T00:36:27;20.02;;;12.38;;
215;SDS011;64590;48.81286795;9.14184224;2022-12-07T00:38:54;21.95;;;11.80;;
215;SDS011;64590;48.81286795;9.14184224;2022-12-07T00:41:23;20.38;;;12.10;;
215;SDS011;64590;48.81286795;9.14184224;2022-12-07T00:43:51;20.23;;;12.05;;
215;SDS011;64590;48.81286795;9.14184224;2022-12-07T00:46:20;22.95;;;12.60;;
215;SDS011;64590;48.81286795;9.14184224;2022-12-07T00:48:47;24.58;;;12.95;;
215;SDS011;64590;48.81286795;9.14184224;2022-12-07T00:51:16;22.90;;;12.25;;
215;SDS011;64590;48.81286795;9.14184224;2022-12-07T00:53:44;23.40;;;12.75;;
215;SDS011;64590;48.81286795;9.14184224;2022-12-07T00:56:11;21.45;;;11.77;;
215;SDS011;64590;48.81286795;9.14184224;2022-12-07T00:58:39;23.15;;;12.90;;
215;SDS011;64590;48.81286795;9.14184224;2022-12-07T01:01:07;22.48;;;12.55;;
215;SDS011;64590;48.81286795;9.14184224;2022-12-07T01:03:36;22.10;;;12.32;;
215;SDS011;64590;48.81286795;9.14184224;2022-12-07T01:06:04;29.25;;;15.70;;
215;SDS011;64590;48.81286795;9.14184224;2022-12-07T01:08:31;22.55;;;12.45;;
215;SDS011;64590;48.81286795;9.14184224;2022-12-07T01:10:59;23.98;;;13.25;;
215;SDS011;64590;48.81286795;9.14184224;2022-12-07T01:13:27;22.40;;;12.30;;
215;SDS011;64590;48.81286795;9.14184224;2022-12-07T01:15:56;24.65;;;13.00;;
215;SDS011;64590;48.81286795;9.14184224;2022-12-07T01:18:25;27.77;;;13.15;;
215;SDS011;64590;48.81286795;9.14184224;2022-12-07T01:21:00;22.45;;;13.27;;
215;SDS011;64590;48.81286795;9.14184224;2022-12-07T01:23:29;24.55;;;13.05;;
215;SDS011;64590;48.81286795;9.14184224;2022-12-07T01:25:56;22.73;;;12.85;;
215;SDS011;64590;48.81286795;9.14184224;2022-12-07T01:28:23;20.25;;;11.80;;
215;SDS011;64590;48.81286795;9.14184224;2022-12-07T01:30:57;22.25;;;11.75;;
215;SDS011;64590;48.81286795;9.14184224;2022-12-07T01:33:26;19.45;;;11.57;;
215;SDS011;64590;48.81286795;9.14184224;2022-12-07T01:35:53;21.50;;;12.13;;
215;SDS011;64590;48.81286795;9.14184224;2022-12-07T01:38:21;23.98;;;12.73;;
215;SDS011;64590;48.81286795;9.14184224;2022-12-07T01:40:53;21.65;;;12.35;;
215;SDS011;64590;48.81286795;9.14184224;2022-12-07T01:43:20;21.33;;;12.60;;
215;SDS011;64590;48.81286795;9.14184224;2022-12-07T01:45:48;21.42;;;12.13;;
215;SDS011;64590;48.81286795;9.14184224;2022-12-07T01:48:16;21.73;;;12.40;;
215;SDS011;64590;48.81286795;9.14184224;2022-12-07T01:50:45;22.33;;;12.18;;
215;SDS011;64590;48.81286795;9.14184224;2022-12-07T01:53:17;20.63;;;11.93;;
215;SDS011;64590;48.81286795;9.14184224;2022-12-07T01:55:46;20.30;;;11.43;;
215;SDS011;64590;48.81286795;9.14184224;2022-12-07T01:58:16;23.63;;;12.43;;
215;SDS011;64590;48.81286795;9.14184224;2022-12-07T02:00:43;21.33;;;11.70;;
215;SDS011;64590;48.81286795;9.14184224;2022-12-07T02:03:11;21.02;;;11.80;;
215;SDS011;64590;48.81286795;9.14184224;2022-12-07T02:05:41;22.00;;;11.93;;
215;SDS011;64590;48.81286795;9.14184224;2022-12-07T02:08:09;25.98;;;12.32;;
215;SDS011;64590;48.81286795;9.14184224;2022-12-07T02:10:38;22.02;;;12.35;;
215;SDS011;64590;48.81286795;9.14184224;2022-12-07T02:13:07;24.08;;;12.35;;
215;SDS011;64590;48.81286795;9.14184224;2022-12-07T02:15:44;25.10;;;11.07;;
215;SDS011;64590;48.81286795;9.14184224;2022-12-07T02:18:21;25.30;;;12.93;;
215;SDS011;64590;48.81286795;9.14184224;2022-12-07T02:20:57;24.38;;;12.25;;
215;SDS011;64590;48.81286795;9.14184224;2022-12-07T02:23:40;22.55;;;12.45;;
215;SDS011;64590;48.81286795;9.14184224;2022-12-07T02:26:23;25.60;;;11.82;;
215;SDS011;64590;48.81286795;9.14184224;2022-12-07T02:29:16;19.65;;;11.13;;
215;SDS011;64590;48.81286795;9.14184224;2022-12-07T02:31:46;21.48;;;12.07;;
215;SDS011;64590;48.81286795;9.14184224;2022-12-07T02:34:22;21.38;;;11.95;;
215;SDS011;64590;48.81286795;9.14184224;2022-12-07T02:36:57;21.85;;;12.13;;
215;SDS011;64590;48.81286795;9.14184224;2022-12-07T02:39:28;24.13;;;11.27;;
215;SDS011;64590;48.81286795;9.14184224;2022-12-07T02:42:02;19.48;;;11.50;;
215;SDS011;64590;48.81286795;9.14184224;2022-12-07T02:44:37;20.30;;;11.65;;
215;SDS011;64590;48.81286795;9.14184224;2022-12-07T02:47:05;22.58;;;12.52;;
215;SDS011;64590;48.81286795;9.14184224;2022-12-07T02:49:35;20.13;;;11.10;;
215;SDS011;64590;48.81286795;9.14184224;2022-12-07T02:52:04;20.65;;;11.32;;
215;SDS011;64590;48.81286795;9.14184224;2022-12-07T02:54:31;21.45;;;11.68;;
215;SDS011;64590;48.81286795;9.14184224;2022-12-07T02:57:00;21.27;;;11.15;;
215;SDS011;64590;48.81286795;9.14184224;2022-12-07T02:59:35;21.63;;;11.38;;
215;SDS011;64590;48.81286795;9.14184224;2022-12-07T03:02:17;19.75;;;10.82;;
215;SDS011;64590;48.81286795;9.14184224;2022-12-07T03:04:52;21.38;;;11.82;;
215;SDS011;64590;48.81286795;9.14184224;2022-12-07T03:07:33;20.08;;;11.10;;
215;SDS011;64590;48.81286795;9.14184224;2022-12-07T03:10:08;19.33;;;10.90;;
215;SDS011;64590;48.81286795;9.14184224;2022-12-07T03:12:44;18.35;;;10.80;;
215;SDS011;64590;48.81286795;9.14184224;2022-12-07T03:15:18;20.15;;;11.18;;
215;SDS011;64590;48.81286795;9.14184224;2022-12-07T03:17:52;20.20;;;11.23;;
215;SDS011;64590;48.81286795;9.14184224;2022-12-07T03:20:22;19.50;;;11.30;;
215;SDS011;64590;48.81286795;9.14184224;2022-12-07T03:22:51;21.13;;;10.57;;
215;SDS011;64590;48.81286795;9.14184224;2022-12-07T03:25:20;21.33;;;11.00;;
215;SDS011;64590;48.81286795;9.14184224;2022-12-07T03:27:49;20.60;;;11.20;;
215;SDS011;64590;48.81286795;9.14184224;2022-12-07T03:30:23;24.10;;;11.50;;
215;SDS011;64590;48.81286795;9.14184224;2022-12-07T03:32:55;20.45;;;11.27;;
215;SDS011;64590;48.81286795;9.14184224;2022-12-07T03:35:27;18.17;;;10.65;;
215;SDS011;64590;48.81286795;9.14184224;2022-12-07T03:37:59;20.30;;;11.52;;
215;SDS011;64590;48.81286795;9.14184224;2022-12-07T03:40:30;17.98;;;10.80;;
215;SDS011;64590;48.81286795;9.14184224;2022-12-07T03:43:01;19.25;;;11.18;;
215;SDS011;64590;48.81286795;9.14184224;2022-12-07T03:45:31;21.27;;;11.30;;
215;SDS011;64590;48.81286795;9.14184224;2022-12-07T03:48:05;19.85;;;11.10;;
215;SDS011;64590;48.81286795;9.14184224;2022-12-07T03:50:38;23.38;;;11.80;;
215;SDS011;64590;48.81286795;9.14184224;2022-12-07T03:53:12;20.95;;;11.80;;
215;SDS011;64590;48.81286795;9.14184224;2022-12-07T03:55:44;20.30;;;11.65;;
215;SDS011;64590;48.81286795;9.14184224;2022-12-07T03:58:14;21.90;;;11.90;;
215;SDS011;64590;48.81286795;9.14184224;2022-12-07T04:00:45;20.25;;;11.60;;
215;SDS011;64590;48.81286795;9.14184224;2022-12-07T04:03:12;21.80;;;11.05;;
215;SDS011;64590;48.81286795;9.14184224;2022-12-07T04:05:39;20.50;;;11.02;;
215;SDS011;64590;48.81286795;9.14184224;2022-12-07T04:08:06;20.70;;;11.30;;
215;SDS011;64590;48.81286795;9.14184224;2022-12-07T04:10:33;17.80;;;10.15;;
215;SDS011;64590;48.81286795;9.14184224;2022-12-07T04:13:00;19.23;;;10.60;;
215;SDS011;64590;48.81286795;9.14184224;2022-12-07T04:15:26;17.98;;;9.63;;
215;SDS011;64590;48.81286795;9.14184224;2022-12-07T04:17:54;17.98;;;9.70;;
215;SDS011;64590;48.81286795;9.14184224;2022-12-07T04:20:21;18.23;;;10.23;;
215;SDS011;64590;48.81286795;9.14184224;2022-12-07T04:22:48;16.05;;;9.43;;
215;SDS011;64590;48.81286795;9.14184224;2022-12-07T04:25:15;15.70;;;9.25;;
215;SDS011;64590;48.81286795;9.14184224;2022-12-07T04:27:41;13.73;;;7.90;;
215;SDS011;64590;48.81286795;9.14184224;2022-12-07T04:30:08;14.25;;;7.80;;
215;SDS011;64590;48.81286795;9.14184224;2022-12-07T04:32:35;12.25;;;6.95;;
215;SDS011;64590;48.81286795;9.14184224;2022-12-07T04:35:04;13.50;;;7.57;;
215;SDS011;64590;48.81286795;9.14184224;2022-12-07T04:37:31;10.88;;;6.30;;
215;SDS011;64590;48.81286795;9.14184224;2022-12-07T04:39:58;11.10;;;6.57;;
215;SDS011;64590;48.81286795;9.14184224;2022-12-07T04:42:25;10.13;;;6.10;;
215;SDS011;64590;48.81286795;9.14184224;2022-12-07T04:44:51;11.85;;;6.70;;
215;SDS011;64590;48.81286795;9.14184224;2022-12-07T04:47:18;13.68;;;6.20;;
215;SDS011;64590;48.81286795;9.14184224;2022-12-07T04:49:45;11.13;;;6.80;;
215;SDS011;64590;48.81286795;9.14184224;2022-12-07T04:52:13;11.15;;;6.05;;
215;SDS011;64590;48.81286795;9.14184224;2022-12-07T04:54:40;9.52;;;5.70;;
215;SDS011;64590;48.81286795;9.14184224;2022-12-07T04:57:06;10.95;;;6.45;;
215;SDS011;64590;48.81286795;9.14184224;2022-12-07T04:59:33;11.13;;;6.57;;
215;SDS011;64590;48.81286795;9.14184224;2022-12-07T05:01:59;12.55;;;5.93;;
215;SDS011;64590;48.81286795;9.14184224;2022-12-07T05:04:26;10.05;;;5.85;;
215;SDS011;64590;48.81286795;9.14184224;2022-12-07T05:06:53;13.20;;;5.93;;
215;SDS011;64590;48.81286795;9.14184224;2022-12-07T05:09:21;10.43;;;6.25;;
215;SDS011;64590;48.81286795;9.14184224;2022-12-07T05:11:48;11.50;;;6.28;;
215;SDS011;64590;48.81286795;9.14184224;2022-12-07T05:14:15;10.05;;;5.80;;
215;SDS011;64590;48.81286795;9.14184224;2022-12-07T05:16:43;10.15;;;5.93;;
215;SDS011;64590;48.81286795;9.14184224;2022-12-07T05:19:11;10.00;;;5.45;;
215;SDS011;64590;48.81286795;9.14184224;2022-12-07T05:21:38;10.00;;;5.75;;
215;SDS011;64590;48.81286795;9.14184224;2022-12-07T05:24:06;15.80;;;7.82;;
215;SDS011;64590;48.81286795;9.14184224;2022-12-07T05:26:35;14.57;;;8.00;;
215;SDS011;64590;48.81286795;9.14184224;2022-12-07T05:29:02;15.57;;;8.80;;
215;SDS011;64590;48.81286795;9.14184224;2022-12-07T05:31:29;17.50;;;9.55;;
215;SDS011;64590;48.81286795;9.14184224;2022-12-07T05:33:56;16.50;;;9.18;;
215;SDS011;64590;48.81286795;9.14184224;2022-12-07T05:36:22;16.55;;;9.45;;
215;SDS011;64590;48.81286795;9.14184224;2022-12-07T05:38:49;17.45;;;9.77;;
215;SDS011;64590;48.81286795;9.14184224;2022-12-07T05:41:16;16.65;;;8.90;;
215;SDS011;64590;48.81286795;9.14184224;2022-12-07T05:44:03;16.92;;;9.30;;
215;SDS011;64590;48.81286795;9.14184224;2022-12-07T05:46:30;14.45;;;8.70;;
215;SDS011;64590;48.81286795;9.14184224;2022-12-07T05:48:56;17.25;;;9.82;;
215;SDS011;64590;48.81286795;9.14184224;2022-12-07T05:51:23;20.08;;;9.95;;
215;SDS011;64590;48.81286795;9.14184224;2022-12-07T05:53:50;16.50;;;9.32;;
215;SDS011;64590;48.81286795;9.14184224;2022-12-07T05:56:16;19.30;;;9.95;;
215;SDS011;64590;48.81286795;9.14184224;2022-12-07T05:58:43;18.95;;;11.27;;
215;SDS011;64590;48.81286795;9.14184224;2022-12-07T06:01:29;20.45;;;10.30;;
215;SDS011;64590;48.81286795;9.14184224;2022-12-07T06:03:56;20.05;;;10.88;;
215;SDS011;64590;48.81286795;9.14184224;2022-12-07T06:06:22;19.27;;;10.30;;
215;SDS011;64590;48.81286795;9.14184224;2022-12-07T06:08:49;19.23;;;10.25;;
215;SDS011;64590;48.81286795;9.14184224;2022-12-07T06:11:16;29.90;;;18.33;;
215;SDS011;64590;48.81286795;9.14184224;2022-12-07T06:14:00;17.33;;;9.70;;
215;SDS011;64590;48.81286795;9.14184224;2022-12-07T06:16:27;20.60;;;9.48;;
215;SDS011;64590;48.81286795;9.14184224;2022-12-07T06:18:55;17.73;;;9.73;;
215;SDS011;64590;48.81286795;9.14184224;2022-12-07T06:21:21;19.25;;;10.02;;
215;SDS011;64590;48.81286795;9.14184224;2022-12-07T06:23:48;31.92;;;17.55;;
215;SDS011;64590;48.81286795;9.14184224;2022-12-07T06:26:15;28.38;;;15.40;;
215;SDS011;64590;48.81286795;9.14184224;2022-12-07T06:28:42;23.98;;;13.10;;
215;SDS011;64590;48.81286795;9.14184224;2022-12-07T06:31:08;24.65;;;11.90;;
215;SDS011;64590;48.81286795;9.14184224;2022-12-07T06:33:37;25.35;;;14.25;;
215;SDS011;64590;48.81286795;9.14184224;2022-12-07T06:36:04;16.90;;;9.15;;
215;SDS011;64590;48.81286795;9.14184224;2022-12-07T06:38:31;15.68;;;8.88;;
215;SDS011;64590;48.81286795;9.14184224;2022-12-07T06:40:57;19.48;;;10.45;;
215;SDS011;64590;48.81286795;9.14184224;2022-12-07T06:43:24;22.90;;;12.50;;
215;SDS011;64590;48.81286795;9.14184224;2022-12-07T06:45:50;22.65;;;11.90;;
215;SDS011;64590;48.81286795;9.14184224;2022-12-07T06:48:17;19.23;;;10.50;;
215;SDS011;64590;48.81286795;9.14184224;2022-12-07T06:50:45;16.30;;;9.27;;
215;SDS011;64590;48.81286795;9.14184224;2022-12-07T06:53:12;16.52;;;9.13;;
215;SDS011;64590;48.81286795;9.14184224;2022-12-07T06:55:39;18.33;;;9.40;;
215;SDS011;64590;48.81286795;9.14184224;2022-12-07T06:58:06;22.65;;;9.82;;
215;SDS011;64590;48.81286795;9.14184224;2022-12-07T07:00:33;19.42;;;9.50;;
215;SDS011;64590;48.81286795;9.14184224;2022-12-07T07:03:00;16.02;;;8.70;;
215;SDS011;64590;48.81286795;9.14184224;2022-12-07T07:05:27;16.92;;;8.80;;
215;SDS011;64590;48.81286795;9.14184224;2022-12-07T07:07:55;18.08;;;8.65;;
215;SDS011;64590;48.81286795;9.14184224;2022-12-07T07:10:21;14.80;;;8.32;;
215;SDS011;64590;48.81286795;9.14184224;2022-12-07T07:12:48;14.48;;;7.95;;
215;SDS011;64590;48.81286795;9.14184224;2022-12-07T07:15:14;12.13;;;7.28;;
215;SDS011;64590;48.81286795;9.14184224;2022-12-07T07:17:42;13.48;;;7.82;;
215;SDS011;64590;48.81286795;9.14184224;2022-12-07T07:20:09;12.73;;;7.25;;
215;SDS011;64590;48.81286795;9.14184224;2022-12-07T07:22:36;13.05;;;7.50;;
215;SDS011;64590;48.81286795;9.14184224;2022-12-07T07:25:04;12.30;;;7.00;;
215;SDS011;64590;48.81286795;9.14184224;2022-12-07T07:27:31;13.02;;;7.10;;
215;SDS011;64590;48.81286795;9.14184224;2022-12-07T07:29:58;14.00;;;6.80;;
215;SDS011;64590;48.81286795;9.14184224;2022-12-07T07:32:24;15.85;;;6.75;;
215;SDS011;64590;48.81286795;9.14184224;2022-12-07T07:34:51;11.27;;;6.90;;
215;SDS011;64590;48.81286795;9.14184224;2022-12-07T07:37:18;14.35;;;7.60;;
215;SDS011;64590;48.81286795;9.14184224;2022-12-07T07:39:44;13.10;;;7.25;;
215;SDS011;64590;48.81286795;9.14184224;2022-12-07T07:42:12;13.48;;;7.20;;
215;SDS011;64590;48.81286795;9.14184224;2022-12-07T07:44:39;12.45;;;7.18;;
215;SDS011;64590;48.81286795;9.14184224;2022-12-07T07:47:06;13.40;;;7.60;;
215;SDS011;64590;48.81286795;9.14184224;2022-12-07T07:49:32;13.20;;;7.72;;
215;SDS011;64590;48.81286795;9.14184224;2022-12-07T07:51:59;13.32;;;7.53;;
215;SDS011;64590;48.81286795;9.14184224;2022-12-07T07:54:25;12.38;;;6.82;;
215;SDS011;64590;48.81286795;9.14184224;2022-12-07T07:56:52;12.48;;;7.10;;
215;SDS011;64590;48.81286795;9.14184224;2022-12-07T07:59:20;16.60;;;7.60;;
215;SDS011;64590;48.81286795;9.14184224;2022-12-07T08:01:47;13.88;;;6.90;;
215;SDS011;64590;48.81286795;9.14184224;2022-12-07T08:04:14;14.45;;;7.32;;
215;SDS011;64590;48.81286795;9.14184224;2022-12-07T08:06:41;16.42;;;7.10;;
215;SDS011;64590;48.81286795;9.14184224;2022-12-07T08:09:08;15.68;;;7.38;;
215;SDS011;64590;48.81286795;9.14184224;2022-12-07T08:11:35;15.18;;;7.30;;
215;SDS011;64590;48.81286795;9.14184224;2022-12-07T08:14:02;13.35;;;7.30;;
215;SDS011;64590;48.81286795;9.14184224;2022-12-07T08:16:30;11.30;;;6.80;;
215;SDS011;64590;48.81286795;9.14184224;2022-12-07T08:18:57;11.80;;;7.15;;
215;SDS011;64590;48.81286795;9.14184224;2022-12-07T08:21:23;11.55;;;7.10;;
215;SDS011;64590;48.81286795;9.14184224;2022-12-07T08:23:50;12.32;;;7.13;;
215;SDS011;64590;48.81286795;9.14184224;2022-12-07T08:26:17;11.27;;;6.38;;
215;SDS011;64590;48.81286795;9.14184224;2022-12-07T08:28:43;13.73;;;6.88;;
215;SDS011;64590;48.81286795;9.14184224;2022-12-07T08:31:11;11.45;;;7.00;;
215;SDS011;64590;48.81286795;9.14184224;2022-12-07T08:33:42;11.00;;;6.57;;
215;SDS011;64590;48.81286795;9.14184224;2022-12-07T08:36:09;12.80;;;7.03;;
215;SDS011;64590;48.81286795;9.14184224;2022-12-07T08:38:38;12.00;;;7.03;;
215;SDS011;64590;48.81286795;9.14184224;2022-12-07T08:41:06;12.13;;;6.35;;
215;SDS011;64590;48.81286795;9.14184224;2022-12-07T08:43:33;15.15;;;7.38;;
215;SDS011;64590;48.81286795;9.14184224;2022-12-07T08:46:03;16.90;;;8.30;;
215;SDS011;64590;48.81286795;9.14184224;2022-12-07T08:48:36;19.13;;;7.72;;
215;SDS011;64590;48.81286795;9.14184224;2022-12-07T08:51:08;13.73;;;7.20;;
215;SDS011;64590;48.81286795;9.14184224;2022-12-07T08:53:35;11.43;;;6.53;;
215;SDS011;64590;48.81286795;9.14184224;2022-12-07T08:56:04;14.05;;;7.00;;
215;SDS011;64590;48.81286795;9.14184224;2022-12-07T08:58:33;14.13;;;7.05;;
215;SDS011;64590;48.81286795;9.14184224;2022-12-07T09:01:02;11.98;;;6.50;;
215;SDS011;64590;48.81286795;9.14184224;2022-12-07T09:03:29;12.40;;;6.68;;
215;SDS011;64590;48.81286795;9.14184224;2022-12-07T09:05:56;10.10;;;6.00;;
215;SDS011;64590;48.81286795;9.14184224;2022-12-07T09:08:27;12.23;;;6.50;;
215;SDS011;64590;48.81286795;9.14184224;2022-12-07T09:10:57;10.80;;;5.35;;
215;SDS011;64590;48.81286795;9.14184224;2022-12-07T09:13:23;16.05;;;5.80;;
215;SDS011;64590;48.81286795;9.14184224;2022-12-07T09:15:50;11.27;;;5.80;;
215;SDS011;64590;48.81286795;9.14184224;2022-12-07T09:18:17;11.05;;;6.25;;
215;SDS011;64590;48.81286795;9.14184224;2022-12-07T09:20:44;11.02;;;5.80;;
215;SDS011;64590;48.81286795;9.14184224;2022-12-07T09:23:10;14.93;;;6.10;;
215;SDS011;64590;48.81286795;9.14184224;2022-12-07T09:25:38;11.10;;;5.77;;
215;SDS011;64590;48.81286795;9.14184224;2022-12-07T09:28:05;10.32;;;6.07;;
215;SDS011;64590;48.81286795;9.14184224;2022-12-07T09:30:31;11.53;;;5.97;;
215;SDS011;64590;48.81286795;9.14184224;2022-12-07T09:32:58;11.10;;;6.28;;
215;SDS011;64590;48.81286795;9.14184224;2022-12-07T09:35:25;10.20;;;5.40;;
215;SDS011;64590;48.81286795;9.14184224;2022-12-07T09:37:52;9.50;;;5.63;;
215;SDS011;64590;48.81286795;9.14184224;2022-12-07T09:40:20;9.15;;;5.80;;
215;SDS011;64590;48.81286795;9.14184224;2022-12-07T09:42:51;11.30;;;6.05;;
215;SDS011;64590;48.81286795;9.14184224;2022-12-07T09:45:21;9.80;;;5.30;;
215;SDS011;64590;48.81286795;9.14184224;2022-12-07T09:47:50;10.13;;;5.80;;
215;SDS011;64590;48.81286795;9.14184224;2022-12-07T09:50:19;13.65;;;6.90;;
215;SDS011;64590;48.81286795;9.14184224;2022-12-07T09:52:47;11.10;;;5.57;;
215;SDS011;64590;48.81286795;9.14184224;2022-12-07T09:55:15;9.38;;;5.20;;
215;SDS011;64590;48.81286795;9.14184224;2022-12-07T09:57:45;9.10;;;5.10;;
215;SDS011;64590;48.81286795;9.14184224;2022-12-07T10:00:14;11.13;;;5.35;;
215;SDS011;64590;48.81286795;9.14184224;2022-12-07T10:02:43;9.35;;;5.45;;
215;SDS011;64590;48.81286795;9.14184224;2022-12-07T10:05:13;10.07;;;5.45;;
215;SDS011;64590;48.81286795;9.14184224;2022-12-07T10:07:42;15.15;;;6.10;;
215;SDS011;64590;48.81286795;9.14184224;2022-12-07T10:10:13;11.67;;;5.63;;
215;SDS011;64590;48.81286795;9.14184224;2022-12-07T10:12:52;11.37;;;6.50;;
215;SDS011;64590;48.81286795;9.14184224;2022-12-07T10:15:22;10.35;;;5.80;;
215;SDS011;64590;48.81286795;9.14184224;2022-12-07T10:17:49;12.70;;;6.07;;
215;SDS011;64590;48.81286795;9.14184224;2022-12-07T10:20:19;12.50;;;5.95;;
215;SDS011;64590;48.81286795;9.14184224;2022-12-07T10:23:00;10.77;;;6.18;;
215;SDS011;64590;48.81286795;9.14184224;2022-12-07T10:25:30;10.40;;;5.95;;
215;SDS011;64590;48.81286795;9.14184224;2022-12-07T10:28:00;10.27;;;5.93;;
215;SDS011;64590;48.81286795;9.14184224;2022-12-07T10:30:29;10.57;;;6.00;;
215;SDS011;64590;48.81286795;9.14184224;2022-12-07T10:32:57;10.25;;;6.07;;
215;SDS011;64590;48.81286795;9.14184224;2022-12-07T10:35:25;12.40;;;6.30;;
215;SDS011;64590;48.81286795;9.14184224;2022-12-07T10:37:54;11.35;;;6.43;;
215;SDS011;64590;48.81286795;9.14184224;2022-12-07T10:40:24;10.43;;;5.95;;
215;SDS011;64590;48.81286795;9.14184224;2022-12-07T10:43:02;11.70;;;6.27;;
215;SDS011;64590;48.81286795;9.14184224;2022-12-07T10:45:34;12.73;;;6.60;;
215;SDS011;64590;48.81286795;9.14184224;2022-12-07T10:48:02;11.30;;;5.85;;
215;SDS011;64590;48.81286795;9.14184224;2022-12-07T10:50:41;13.90;;;6.47;;
215;SDS011;64590;48.81286795;9.14184224;2022-12-07T10:56:31;11.07;;;6.33;;
215;SDS011;64590;48.81286795;9.14184224;2022-12-07T10:59:33;11.57;;;5.10;;
215;SDS011;64590;48.81286795;9.14184224;2022-12-07T11:02:14;12.75;;;5.00;;
215;SDS011;64590;48.81286795;9.14184224;2022-12-07T11:04:55;8.77;;;5.10;;
215;SDS011;64590;48.81286795;9.14184224;2022-12-07T11:07:35;8.00;;;4.72;;
215;SDS011;64590;48.81286795;9.14184224;2022-12-07T11:10:10;9.40;;;4.97;;
215;SDS011;64590;48.81286795;9.14184224;2022-12-07T11:12:44;9.73;;;4.82;;
215;SDS011;64590;48.81286795;9.14184224;2022-12-07T11:15:20;8.50;;;4.90;;
215;SDS011;64590;48.81286795;9.14184224;2022-12-07T11:17:54;8.98;;;4.50;;
215;SDS011;64590;48.81286795;9.14184224;2022-12-07T11:20:32;11.50;;;4.87;;
215;SDS011;64590;48.81286795;9.14184224;2022-12-07T11:23:11;7.30;;;4.37;;
215;SDS011;64590;48.81286795;9.14184224;2022-12-07T11:25:46;8.93;;;4.22;;
215;SDS011;64590;48.81286795;9.14184224;2022-12-07T11:28:23;8.52;;;4.60;;
215;SDS011;64590;48.81286795;9.14184224;2022-12-07T11:31:02;7.18;;;4.43;;
215;SDS011;64590;48.81286795;9.14184224;2022-12-07T11:33:38;7.65;;;4.60;;
215;SDS011;64590;48.81286795;9.14184224;2022-12-07T11:36:16;10.52;;;5.30;;
215;SDS011;64590;48.81286795;9.14184224;2022-12-07T11:38:55;11.43;;;6.88;;
215;SDS011;64590;48.81286795;9.14184224;2022-12-07T11:41:27;13.32;;;6.28;;
215;SDS011;64590;48.81286795;9.14184224;2022-12-07T11:43:58;10.90;;;6.50;;
215;SDS011;64590;48.81286795;9.14184224;2022-12-07T11:46:35;11.88;;;7.32;;
215;SDS011;64590;48.81286795;9.14184224;2022-12-07T11:49:12;14.52;;;8.75;;
215;SDS011;64590;48.81286795;9.14184224;2022-12-07T11:51:45;14.85;;;7.97;;
215;SDS011;64590;48.81286795;9.14184224;2022-12-07T11:54:17;13.85;;;7.40;;
215;SDS011;64590;48.81286795;9.14184224;2022-12-07T11:56:48;13.63;;;7.72;;
215;SDS011;64590;48.81286795;9.14184224;2022-12-07T11:59:17;13.60;;;7.40;;
215;SDS011;64590;48.81286795;9.14184224;2022-12-07T12:01:52;13.77;;;7.70;;
215;SDS011;64590;48.81286795;9.14184224;2022-12-07T12:04:30;14.05;;;7.35;;
215;SDS011;64590;48.81286795;9.14184224;2022-12-07T12:07:07;15.50;;;8.63;;
215;SDS011;64590;48.81286795;9.14184224;2022-12-07T12:09:49;15.65;;;9.02;;
215;SDS011;64590;48.81286795;9.14184224;2022-12-07T12:12:33;12.73;;;7.45;;
215;SDS011;64590;48.81286795;9.14184224;2022-12-07T12:15:29;14.00;;;7.80;;
215;SDS011;64590;48.81286795;9.14184224;2022-12-07T12:18:15;13.80;;;7.60;;
215;SDS011;64590;48.81286795;9.14184224;2022-12-07T12:20:54;16.05;;;9.35;;
215;SDS011;64590;48.81286795;9.14184224;2022-12-07T12:23:23;14.60;;;8.52;;
215;SDS011;64590;48.81286795;9.14184224;2022-12-07T12:25:57;16.33;;;8.32;;
215;SDS011;64590;48.81286795;9.14184224;2022-12-07T12:28:26;13.43;;;8.05;;
215;SDS011;64590;48.81286795;9.14184224;2022-12-07T12:31:06;15.65;;;8.38;;
215;SDS011;64590;48.81286795;9.14184224;2022-12-07T12:33:36;12.60;;;7.28;;
215;SDS011;64590;48.81286795;9.14184224;2022-12-07T12:36:19;15.82;;;7.25;;
215;SDS011;64590;48.81286795;9.14184224;2022-12-07T12:38:49;14.93;;;7.68;;
215;SDS011;64590;48.81286795;9.14184224;2022-12-07T12:47:53;12.55;;;7.50;;
215;SDS011;64590;48.81286795;9.14184224;2022-12-07T12:50:30;17.02;;;7.95;;
215;SDS011;64590;48.81286795;9.14184224;2022-12-07T12:53:03;14.80;;;8.32;;
215;SDS011;64590;48.81286795;9.14184224;2022-12-07T12:58:40;15.15;;;8.00;;
215;SDS011;64590;48.81286795;9.14184224;2022-12-07T13:04:17;15.98;;;7.63;;
215;SDS011;64590;48.81286795;9.14184224;2022-12-07T13:06:58;15.38;;;8.10;;
215;SDS011;64590;48.81286795;9.14184224;2022-12-07T13:09:27;13.18;;;7.30;;
215;SDS011;64590;48.81286795;9.14184224;2022-12-07T13:11:58;21.85;;;7.60;;
215;SDS011;64590;48.81286795;9.14184224;2022-12-07T13:14:35;13.90;;;7.70;;
215;SDS011;64590;48.81286795;9.14184224;2022-12-07T13:17:10;17.95;;;7.60;;
215;SDS011;64590;48.81286795;9.14184224;2022-12-07T13:25:31;13.23;;;7.22;;
215;SDS011;64590;48.81286795;9.14184224;2022-12-07T13:28:07;15.10;;;7.85;;
215;SDS011;64590;48.81286795;9.14184224;2022-12-07T13:30:43;16.05;;;8.80;;
215;SDS011;64590;48.81286795;9.14184224;2022-12-07T13:33:14;14.48;;;8.63;;
215;SDS011;64590;48.81286795;9.14184224;2022-12-07T13:35:44;15.40;;;8.65;;